Flight Information

DEPARTURE
PORTLAND, OR
Elevation:
30
Runways:
10L/28R - 9825x150 - ASPH-E
10R/28L - 11000x150 - CONC-G
3/21 - 6000x150 - ASPH-E
Active PE Departure:
10L - 10R
Current PE ATIS:
P
Altimeter:
30.34
Remarks:
SIMULTANEOUS APPROACHES TO PARALLEL RUNWAYS IN USE. V F R DEPARTURES CONTACT CLEARANCE DELIVERY, ADVISE ON COURSE HEADING, ALTITUDE, AND IF FLIGHT FOLLOWING IS REQUESTED.
ATIS:
128.35 503-493-7557
Clearance Delivery:
120.125
Ground:
121.9
Tower:
PORTLAND TOWER
123.775 RWY 03-21, 10R-28L
118.7 RWY 10L-28R
DESTINATION
,
Elevation:
TPA:
1000 (est.)


6728.6 NM65° True-19° Var46° HDG

Flight Plan:
(click to file on line)

1. Type
2. Aircraft Identification
3. Aircraft Type / Special Equipment
4. True Airspeed
kts
5. Departure Airport
(ICAO code)
6. Arriving Airport
(ICAO code)
7. Cruising Altitude
ft
8. Alternate Airport
(ICAO code)
9. Route of Flight
10. Remarks


00:00:00 Departure ATIS: Destination ATIS:

Clearance Limit:
Route:
Altitude: Expect in minutes
Frequency:
Transponder: (7500 Hijack / 7600 Lost Comms / 7700 Emergency)


KPDX 110353Z 33005KT 10SM FEW200 07/M02 A3034 RMK AO2 SLP272 T00671017
Time: 2021-04-11T03:53:00Z
1618114273
Winds: 330 @ 5 kts
Visibility: 10.0 sm
Clouds (AGL): FEW 20000
Temperature: 6.7 C
Dew Point: -1.7 C
Pressure: 30.339567 in Hgbr


Notes:

Data extracted from FAA Digital Chart Supplement. Effective: 0901Z Thursday, Feb 25, 2021 to 0901Z Thursday, APR 22, 2021
Current ATIS data is provided courtisy of PilotEdge.